Latest Weather Observations for Fort Denison

IDN60801

Issued at 5:03 am EST Sunday 26 June 2016 (issued every 30 minutes, with the page automatically refreshed every 10 minutes)

About weather observations | Map of weather stations | Latest weather observations for NSW | Other Formats
Station Details ID: 066022 Name: FORT DENISON Lat: -33.86 Lon: 151.23 Height: 5.0 m
Data from the previous 72 hours. | See also: Recent months for locations in New South Wales
Date/Time
EST
Temp
°C
App
Temp
°C
Dew
Point
°C
Rel
Hum
%
Delta-T
°C
Wind Press
QNH
hPa
Press
MSL
hPa
Rain since
9am
mm
Dir  Spd
km/h
Gust
km/h
Spd
kts
Gust
kts
26/05:00am - - - - - W 24 30 13 16 - - -
26/04:30am - - - - - W 26 33 14 18 - - -
26/04:00am - - - - - W 24 28 13 15 - - -
26/03:30am - - - - - W 26 32 14 17 - - -
26/03:00am - - - - - W 30 37 16 20 - - -
26/02:30am - - - - - W 28 33 15 18 - - -
26/02:00am - - - - - W 28 35 15 19 - - -
26/01:30am - - - - - W 28 35 15 19 - - -
26/01:00am - - - - - W 26 32 14 17 - - -
26/12:30am - - - - - W 26 32 14 17 - - -
26/12:00am - - - - - W 24 30 13 16 - - -
 
Date/Time
EST
Temp
°C
App
Temp
°C
Dew
Point
°C
Rel
Hum
%
Delta-T
°C
Wind Press
QNH
hPa
Press
MSL
hPa
Rain since
9am
mm
Dir  Spd
km/h
Gust
km/h
Spd
kts
Gust
kts
25/11:30pm - - - - - W 22 30 12 16 - - -
25/11:00pm - - - - - W 24 28 13 15 - - -
25/10:30pm - - - - - W 22 30 12 16 - - -
25/10:00pm - - - - - W 22 26 12 14 - - -
25/09:30pm - - - - - W 20 26 11 14 - - -
25/09:00pm - - - - - W 20 28 11 15 - - -
25/08:30pm - - - - - WSW 19 26 10 14 - - -
25/08:00pm - - - - - W 20 30 11 16 - - -
25/07:30pm - - - - - WSW 20 32 11 17 - - -
25/07:00pm - - - - - W 20 30 11 16 - - -
25/06:30pm - - - - - W 17 30 9 16 - - -
25/06:00pm - - - - - SW 13 24 7 13 - - -
25/05:30pm - - - - - SW 7 15 4 8 - - -
25/05:00pm - - - - - SSW 13 19 7 10 - - -
25/04:30pm - - - - - SSW 13 22 7 12 - - -
25/04:00pm - - - - - S 15 22 8 12 - - -
25/03:30pm - - - - - S 15 24 8 13 - - -
25/03:00pm - - - - - S 17 26 9 14 - - -
25/02:30pm - - - - - S 19 28 10 15 - - -
25/02:00pm - - - - - S 19 30 10 16 - - -
25/01:30pm - - - - - S 19 30 10 16 - - -
25/01:00pm - - - - - SSW 19 30 10 16 - - -
25/12:30pm - - - - - SW 17 32 9 17 - - -
25/12:00pm - - - - - SW 22 35 12 19 - - -
25/11:30am - - - - - SW 15 24 8 13 - - -
25/11:00am - - - - - WSW 24 35 13 19 - - -
25/10:30am - - - - - WSW 28 43 15 23 - - -
25/10:00am - - - - - W 28 43 15 23 - - -
25/09:30am - - - - - W 24 39 13 21 - - -
25/09:14am - - - - - WSW 28 46 15 25 - - -
25/09:00am - - - - - W 28 43 15 23 - - -
25/08:30am - - - - - W 22 32 12 17 - - -
25/08:00am - - - - - W 22 28 12 15 - - -
25/07:30am - - - - - W 26 33 14 18 - - -
25/07:00am - - - - - W 24 33 13 18 - - -
25/06:30am - - - - - W 24 33 13 18 - - -
25/06:00am - - - - - W 26 33 14 18 - - -
25/05:30am - - - - - W 28 41 15 22 - - -
25/05:00am - - - - - W 26 37 14 20 - - -
25/04:30am - - - - - WSW 22 32 12 17 - - -
25/04:00am - - - - - WSW 17 33 9 18 - - -
25/03:30am - - - - - W 33 46 18 25 - - -
25/03:00am - - - - - W 28 37 15 20 - - -
25/02:43am - - - - - W 28 46 15 25 - - -
25/02:30am - - - - - W 28 43 15 23 - - -
25/02:00am - - - - - W 32 46 17 25 - - -
25/01:30am - - - - - W 30 46 16 25 - - -
25/01:10am - - - - - W 35 54 19 29 - - -
25/01:00am - - - - - W 35 44 19 24 - - -
25/12:41am - - - - - WSW 28 46 15 25 - - -
25/12:30am - - - - - WSW 28 37 15 20 - - -
25/12:00am - - - - - WSW 35 46 19 25 - - -
 
Date/Time
EST
Temp
°C
App
Temp
°C
Dew
Point
°C
Rel
Hum
%
Delta-T
°C
Wind Press
QNH
hPa
Press
MSL
hPa
Rain since
9am
mm
Dir  Spd
km/h
Gust
km/h
Spd
kts
Gust
kts
24/11:30pm - - - - - W 39 59 21 32 - - -
24/11:21pm - - - - - W 37 56 20 30 - - -
24/11:00pm - - - - - W 28 41 15 22 - - -
24/10:44pm - - - - - W 32 50 17 27 - - -
24/10:30pm - - - - - W 35 52 19 28 - - -
24/10:00pm - - - - - W 32 44 17 24 - - -
24/09:35pm - - - - - W 41 63 22 34 - - -
24/09:30pm - - - - - W 41 57 22 31 - - -
24/09:14pm - - - - - W 37 56 20 30 - - -
24/09:00pm - - - - - W 39 56 21 30 - - -
24/08:30pm - - - - - W 43 65 23 35 - - -
24/08:00pm - - - - - W 44 65 24 35 - - -
24/07:30pm - - - - - W 35 56 19 30 - - -
24/07:24pm - - - - - W 32 50 17 27 - - -
24/07:00pm - - - - - W 22 33 12 18 - - -
24/06:30pm - - - - - WNW 28 35 15 19 - - -
24/06:00pm - - - - - W 28 39 15 21 - - -
24/05:37pm - - - - - W 35 54 19 29 - - -
24/05:30pm - - - - - W 39 54 21 29 - - -
24/05:00pm - - - - - W 35 57 19 31 - - -
24/04:30pm - - - - - W 39 57 21 31 - - -
24/04:00pm - - - - - W 43 63 23 34 - - -
24/03:30pm - - - - - W 39 57 21 31 - - -
24/03:00pm - - - - - W 43 63 23 34 - - -
24/02:37pm - - - - - W 39 57 21 31 - - -
24/02:30pm - - - - - WNW 37 52 20 28 - - -
24/02:00pm - - - - - WNW 35 50 19 27 - - -
24/01:30pm - - - - - WNW 39 52 21 28 - - -
24/01:00pm - - - - - W 35 56 19 30 - - -
24/12:58pm - - - - - W 35 56 19 30 - - -
24/12:30pm - - - - - WNW 33 46 18 25 - - -
24/12:18pm - - - - - WNW 32 52 17 28 - - -
24/12:00pm - - - - - WNW 30 43 16 23 - - -
24/11:30am - - - - - WNW 22 35 12 19 - - -
24/11:00am - - - - - WNW 22 30 12 16 - - -
24/10:30am - - - - - WNW 17 22 9 12 - - -
24/10:00am - - - - - WSW 28 43 15 23 - - -
24/09:36am - - - - - WSW 28 61 15 33 - - -
24/09:30am - - - - - WSW 17 28 9 15 - - -
24/09:00am - - - - - WNW 13 19 7 10 - - -
24/08:30am - - - - - NW 19 24 10 13 - - -
24/08:00am - - - - - NW 20 32 11 17 - - -
24/07:30am - - - - - NNW 26 33 14 18 - - -
24/07:00am - - - - - NNW 24 30 13 16 - - -
24/06:30am - - - - - NNW 24 28 13 15 - - -
24/06:00am - - - - - NNW 20 24 11 13 - - -
24/05:30am - - - - - NNW 20 26 11 14 - - -
24/05:00am - - - - - NNW 26 32 14 17 - - -
24/04:30am - - - - - NNW 19 22 10 12 - - -
24/04:00am - - - - - NNW 17 22 9 12 - - -
24/03:30am - - - - - NNW 19 24 10 13 - - -
24/03:00am - - - - - N 17 20 9 11 - - -
24/02:30am - - - - - NNW 24 30 13 16 - - -
24/02:00am - - - - - NNW 22 30 12 16 - - -
24/01:30am - - - - - NNW 28 33 15 18 - - -
24/01:00am - - - - - NNW 32 41 17 22 - - -
24/12:30am - - - - - N 26 32 14 17 - - -
24/12:00am - - - - - N 20 30 11 16 - - -
 
Date/Time
EST
Temp
°C
App
Temp
°C
Dew
Point
°C
Rel
Hum
%
Delta-T
°C
Wind Press
QNH
hPa
Press
MSL
hPa
Rain since
9am
mm
Dir  Spd
km/h
Gust
km/h
Spd
kts
Gust
kts
23/11:30pm - - - - - N 20 28 11 15 - - -
23/11:00pm - - - - - N 17 20 9 11 - - -
23/10:30pm - - - - - N 15 22 8 12 - - -
23/10:00pm - - - - - N 11 15 6 8 - - -
23/09:30pm - - - - - N 11 15 6 8 - - -
23/09:00pm - - - - - NNW 13 17 7 9 - - -
23/08:30pm - - - - - N 11 15 6 8 - - -
23/08:00pm - - - - - N 17 20 9 11 - - -
23/07:30pm - - - - - NNW 19 26 10 14 - - -
23/07:00pm - - - - - NNW 22 32 12 17 - - -
23/06:30pm - - - - - NNW 20 26 11 14 - - -
23/06:00pm - - - - - N 19 28 10 15 - - -
23/05:30pm - - - - - N 17 22 9 12 - - -
23/05:00pm - - - - - N 15 22 8 12 - - -
23/04:30pm - - - - - NNW 20 28 11 15 - - -
23/04:00pm - - - - - NNW 22 28 12 15 - - -
23/03:30pm - - - - - NNW 22 32 12 17 - - -
23/03:00pm - - - - - NNW 22 32 12 17 - - -
23/02:30pm - - - - - NW 17 24 9 13 - - -
23/02:00pm - - - - - NW 19 24 10 13 - - -
23/01:30pm - - - - - NW 15 22 8 12 - - -
23/01:00pm - - - - - NW 17 24 9 13 - - -
23/12:30pm - - - - - NW 15 26 8 14 - - -
23/12:00pm - - - - - NNW 22 30 12 16 - - -
23/11:30am - - - - - NW 13 19 7 10 - - -
23/11:00am - - - - - W 7 11 4 6 - - -
23/10:30am - - - - - W 9 13 5 7 - - -
23/10:00am - - - - - W 9 13 5 7 - - -
23/09:30am - - - - - WNW 7 11 4 6 - - -
23/09:00am - - - - - NNW 7 11 4 6 - - -
23/08:30am - - - - - NNW 9 15 5 8 - - -
23/08:00am - - - - - NNW 13 17 7 9 - - -
23/07:30am - - - - - NW 11 17 6 9 - - -
23/07:00am - - - - - NNW 15 19 8 10 - - -
23/06:30am - - - - - NW 15 20 8 11 - - -
23/06:00am - - - - - NNW 17 19 9 10 - - -
23/05:30am - - - - - NNW 13 15 7 8 - - -

Other Formats:

Comma delimited format used in spreadsheet applications
http://www.bom.gov.au/fwo/IDN60801/IDN60801.94769.axf

JavaScript Object Notation format (JSON) in row-major order
http://www.bom.gov.au/fwo/IDN60801/IDN60801.94769.json